sensor_id;sensor_type;location;lat;lon;timestamp;pressure;altitude;pressure_sealevel;temperature;humidity
48848;BME280;36611;51.638;5.784;2023-06-24T00:01:50;102328.72;;;30.42;37.78
48848;BME280;36611;51.638;5.784;2023-06-24T00:04:17;102330.63;;;30.41;37.78
48848;BME280;36611;51.638;5.784;2023-06-24T00:06:45;102328.91;;;30.40;37.82
48848;BME280;36611;51.638;5.784;2023-06-24T00:09:12;102328.91;;;30.40;37.79
48848;BME280;36611;51.638;5.784;2023-06-24T00:11:38;102327.84;;;30.41;37.98
48848;BME280;36611;51.638;5.784;2023-06-24T00:14:05;102332.75;;;30.39;38.02
48848;BME280;36611;51.638;5.784;2023-06-24T00:16:33;102325.28;;;30.40;37.97
48848;BME280;36611;51.638;5.784;2023-06-24T00:18:59;102325.28;;;30.40;37.89
48848;BME280;36611;51.638;5.784;2023-06-24T00:21:28;102332.53;;;30.41;37.87
48848;BME280;36611;51.638;5.784;2023-06-24T00:23:59;102322.50;;;30.40;37.83
48848;BME280;36611;51.638;5.784;2023-06-24T00:26:28;102326.34;;;30.39;37.60
48848;BME280;36611;51.638;5.784;2023-06-24T00:28:55;102321.66;;;30.39;37.95
48848;BME280;36611;51.638;5.784;2023-06-24T00:31:21;102320.59;;;30.40;37.74
48848;BME280;36611;51.638;5.784;2023-06-24T00:33:48;102323.56;;;30.39;37.74
48848;BME280;36611;51.638;5.784;2023-06-24T00:36:16;102325.28;;;30.40;37.71
48848;BME280;36611;51.638;5.784;2023-06-24T00:38:42;102326.34;;;30.39;38.01
48848;BME280;36611;51.638;5.784;2023-06-24T00:41:10;102326.34;;;30.39;37.86
48848;BME280;36611;51.638;5.784;2023-06-24T00:43:37;102332.75;;;30.39;37.85
48848;BME280;36611;51.638;5.784;2023-06-24T00:46:05;102334.66;;;30.39;37.84
48848;BME280;36611;51.638;5.784;2023-06-24T00:48:33;102338.28;;;30.39;37.96
48848;BME280;36611;51.638;5.784;2023-06-24T00:50:59;102340.22;;;30.39;37.78
48848;BME280;36611;51.638;5.784;2023-06-24T00:53:26;102339.34;;;30.38;37.60
48848;BME280;36611;51.638;5.784;2023-06-24T00:55:54;102339.34;;;30.38;37.84
48848;BME280;36611;51.638;5.784;2023-06-24T00:58:22;102342.97;;;30.39;37.91
48848;BME280;36611;51.638;5.784;2023-06-24T01:00:49;102337.44;;;30.39;37.69
48848;BME280;36611;51.638;5.784;2023-06-24T01:03:24;102333.81;;;30.38;37.72
48848;BME280;36611;51.638;5.784;2023-06-24T01:05:54;102332.94;;;30.38;37.91
48848;BME280;36611;51.638;5.784;2023-06-24T01:08:20;102330.19;;;30.38;37.77
48848;BME280;36611;51.638;5.784;2023-06-24T01:10:49;102334.88;;;30.37;37.78
48848;BME280;36611;51.638;5.784;2023-06-24T01:13:17;102330.19;;;30.38;37.92
48848;BME280;36611;51.638;5.784;2023-06-24T01:15:45;102324.63;;;30.38;38.06
48848;BME280;36611;51.638;5.784;2023-06-24T01:20:54;102328.25;;;30.38;38.21
48848;BME280;36611;51.638;5.784;2023-06-24T01:24:01;102322.91;;;30.36;37.81
48848;BME280;36611;51.638;5.784;2023-06-24T01:32:22;102329.72;;;30.34;37.93
48848;BME280;36611;51.638;5.784;2023-06-24T01:34:59;102320.56;;;30.33;38.07
48848;BME280;36611;51.638;5.784;2023-06-24T01:37:45;102326.97;;;30.34;37.81
48848;BME280;36611;51.638;5.784;2023-06-24T01:40:25;102328.88;;;30.33;38.02
48848;BME280;36611;51.638;5.784;2023-06-24T01:42:53;102316.94;;;30.33;37.95
48848;BME280;36611;51.638;5.784;2023-06-24T01:45:26;102319.69;;;30.33;37.95
48848;BME280;36611;51.638;5.784;2023-06-24T01:48:01;102319.69;;;30.33;38.02
48848;BME280;36611;51.638;5.784;2023-06-24T01:50:31;102327.16;;;30.32;38.11
48848;BME280;36611;51.638;5.784;2023-06-24T01:53:01;102324.19;;;30.34;37.64
48848;BME280;36611;51.638;5.784;2023-06-24T01:55:32;102328.88;;;30.33;37.90
48848;BME280;36611;51.638;5.784;2023-06-24T01:58:02;102327.81;;;30.34;38.07
48848;BME280;36611;51.638;5.784;2023-06-24T02:00:32;102325.25;;;30.33;38.08
48848;BME280;36611;51.638;5.784;2023-06-24T02:03:00;102325.25;;;30.33;37.81
48848;BME280;36611;51.638;5.784;2023-06-24T02:05:28;102323.31;;;30.33;37.62
48848;BME280;36611;51.638;5.784;2023-06-24T02:07:55;102325.25;;;30.33;37.78
48848;BME280;36611;51.638;5.784;2023-06-24T02:10:23;102320.56;;;30.33;38.04
48848;BME280;36611;51.638;5.784;2023-06-24T02:12:52;102316.94;;;30.33;37.80
48848;BME280;36611;51.638;5.784;2023-06-24T02:15:21;102316.94;;;30.33;38.12
48848;BME280;36611;51.638;5.784;2023-06-24T02:17:50;102325.25;;;30.33;37.81
48848;BME280;36611;51.638;5.784;2023-06-24T02:20:19;102318.84;;;30.32;37.99
48848;BME280;36611;51.638;5.784;2023-06-24T02:22:45;102324.38;;;30.32;38.10
48848;BME280;36611;51.638;5.784;2023-06-24T02:25:13;102318.84;;;30.32;37.82
48848;BME280;36611;51.638;5.784;2023-06-24T02:27:40;102322.69;;;30.31;38.03
48848;BME280;36611;51.638;5.784;2023-06-24T02:30:08;102316.06;;;30.32;37.81
48848;BME280;36611;51.638;5.784;2023-06-24T02:32:35;102316.06;;;30.32;37.91
48848;BME280;36611;51.638;5.784;2023-06-24T02:35:05;102309.69;;;30.32;37.76
48848;BME280;36611;51.638;5.784;2023-06-24T02:37:32;102309.69;;;30.32;37.88
48848;BME280;36611;51.638;5.784;2023-06-24T02:39:59;102310.53;;;30.32;37.98
48848;BME280;36611;51.638;5.784;2023-06-24T02:42:26;102302.22;;;30.32;37.82
48848;BME280;36611;51.638;5.784;2023-06-24T02:44:53;102297.72;;;30.31;37.92
48848;BME280;36611;51.638;5.784;2023-06-24T02:47:20;102303.28;;;30.31;37.85
48848;BME280;36611;51.638;5.784;2023-06-24T02:49:48;102298.59;;;30.32;37.91
48848;BME280;36611;51.638;5.784;2023-06-24T02:52:15;102298.59;;;30.32;37.93
48848;BME280;36611;51.638;5.784;2023-06-24T02:54:43;102302.41;;;30.31;38.32
48848;BME280;36611;51.638;5.784;2023-06-24T02:57:29;102298.78;;;30.30;37.77
48848;BME280;36611;51.638;5.784;2023-06-24T03:00:22;102303.69;;;30.28;37.90
48848;BME280;36611;51.638;5.784;2023-06-24T03:03:15;102310.28;;;30.27;38.00
48848;BME280;36611;51.638;5.784;2023-06-24T03:05:49;102313.91;;;30.28;38.04
48848;BME280;36611;51.638;5.784;2023-06-24T03:08:18;102316.69;;;30.28;38.13
48848;BME280;36611;51.638;5.784;2023-06-24T03:10:47;102310.09;;;30.29;38.01
48848;BME280;36611;51.638;5.784;2023-06-24T03:13:19;102313.91;;;30.28;37.93
48848;BME280;36611;51.638;5.784;2023-06-24T03:15:51;102311.16;;;30.28;38.01
48848;BME280;36611;51.638;5.784;2023-06-24T03:18:17;102311.16;;;30.28;38.01
48848;BME280;36611;51.638;5.784;2023-06-24T03:20:46;102313.91;;;30.28;38.01
48848;BME280;36611;51.638;5.784;2023-06-24T03:23:17;102316.69;;;30.28;38.10
48848;BME280;36611;51.638;5.784;2023-06-24T03:25:44;102315.84;;;30.27;37.82
48848;BME280;36611;51.638;5.784;2023-06-24T03:28:10;102307.50;;;30.27;38.11
48848;BME280;36611;51.638;5.784;2023-06-24T03:30:44;102313.06;;;30.27;38.13
48848;BME280;36611;51.638;5.784;2023-06-24T03:33:14;102306.66;;;30.27;38.15
48848;BME280;36611;51.638;5.784;2023-06-24T03:35:44;102317.75;;;30.27;37.99
48848;BME280;36611;51.638;5.784;2023-06-24T03:38:13;102316.88;;;30.26;38.15
48848;BME280;36611;51.638;5.784;2023-06-24T03:40:41;102325.19;;;30.26;38.10
48848;BME280;36611;51.638;5.784;2023-06-24T03:43:08;102326.91;;;30.27;38.04
48848;BME280;36611;51.638;5.784;2023-06-24T03:45:35;102326.06;;;30.27;37.90
48848;BME280;36611;51.638;5.784;2023-06-24T03:48:03;102322.44;;;30.26;37.87
48848;BME280;36611;51.638;5.784;2023-06-24T03:50:30;102324.34;;;30.26;38.28
48848;BME280;36611;51.638;5.784;2023-06-24T03:52:58;102327.13;;;30.26;37.79
48848;BME280;36611;51.638;5.784;2023-06-24T03:55:26;102323.50;;;30.25;37.95
48848;BME280;36611;51.638;5.784;2023-06-24T03:57:52;102332.66;;;30.26;38.06
48848;BME280;36611;51.638;5.784;2023-06-24T04:00:19;102338.22;;;30.26;38.10
48848;BME280;36611;51.638;5.784;2023-06-24T04:02:47;102333.72;;;30.25;38.05
48848;BME280;36611;51.638;5.784;2023-06-24T04:05:14;102330.94;;;30.25;38.06
48848;BME280;36611;51.638;5.784;2023-06-24T04:07:41;102331.81;;;30.25;38.07
48848;BME280;36611;51.638;5.784;2023-06-24T04:10:17;102329.25;;;30.24;37.97
48848;BME280;36611;51.638;5.784;2023-06-24T04:12:47;102337.34;;;30.25;37.89
48848;BME280;36611;51.638;5.784;2023-06-24T04:15:14;102337.56;;;30.24;37.71
48848;BME280;36611;51.638;5.784;2023-06-24T04:17:40;102336.50;;;30.25;37.53
48848;BME280;36611;51.638;5.784;2023-06-24T04:20:08;102335.63;;;30.24;38.05
48848;BME280;36611;51.638;5.784;2023-06-24T04:22:41;102330.94;;;30.25;37.89
48848;BME280;36611;51.638;5.784;2023-06-24T04:25:09;102337.75;;;30.22;38.00
48848;BME280;36611;51.638;5.784;2023-06-24T04:27:35;102337.56;;;30.24;38.16
48848;BME280;36611;51.638;5.784;2023-06-24T04:30:05;102336.69;;;30.23;37.97
48848;BME280;36611;51.638;5.784;2023-06-24T04:32:32;102345.00;;;30.23;37.94
48848;BME280;36611;51.638;5.784;2023-06-24T04:34:59;102339.47;;;30.23;37.94
48848;BME280;36611;51.638;5.784;2023-06-24T04:37:27;102340.53;;;30.22;38.06
48848;BME280;36611;51.638;5.784;2023-06-24T04:39:55;102340.53;;;30.22;37.66
48848;BME280;36611;51.638;5.784;2023-06-24T04:42:23;102347.78;;;30.23;37.90
48848;BME280;36611;51.638;5.784;2023-06-24T04:44:50;102342.44;;;30.22;38.01
48848;BME280;36611;51.638;5.784;2023-06-24T04:47:19;102343.28;;;30.22;37.83
48848;BME280;36611;51.638;5.784;2023-06-24T04:49:46;102345.22;;;30.22;38.26
48848;BME280;36611;51.638;5.784;2023-06-24T04:52:13;102337.75;;;30.22;37.96
48848;BME280;36611;51.638;5.784;2023-06-24T04:54:39;102332.22;;;30.22;37.92
48848;BME280;36611;51.638;5.784;2023-06-24T04:57:08;102332.00;;;30.24;37.86
48848;BME280;36611;51.638;5.784;2023-06-24T04:59:35;102331.16;;;30.23;37.73
48848;BME280;36611;51.638;5.784;2023-06-24T05:02:04;102330.28;;;30.23;37.83
48848;BME280;36611;51.638;5.784;2023-06-24T05:04:31;102325.63;;;30.23;37.58
48848;BME280;36611;51.638;5.784;2023-06-24T05:06:57;102329.44;;;30.22;37.96
48848;BME280;36611;51.638;5.784;2023-06-24T05:09:24;102335.63;;;30.24;38.02
48848;BME280;36611;51.638;5.784;2023-06-24T05:11:51;102336.69;;;30.23;37.99
48848;BME280;36611;51.638;5.784;2023-06-24T05:14:17;102333.06;;;30.23;37.83
48848;BME280;36611;51.638;5.784;2023-06-24T05:16:44;102332.22;;;30.22;38.05
48848;BME280;36611;51.638;5.784;2023-06-24T05:19:11;102341.19;;;30.24;38.12
48848;BME280;36611;51.638;5.784;2023-06-24T05:21:38;102333.06;;;30.23;37.97
48848;BME280;36611;51.638;5.784;2023-06-24T05:24:05;102341.19;;;30.24;37.96
48848;BME280;36611;51.638;5.784;2023-06-24T05:26:31;102348.63;;;30.24;37.82
48848;BME280;36611;51.638;5.784;2023-06-24T05:28:58;102340.31;;;30.24;37.80
48848;BME280;36611;51.638;5.784;2023-06-24T05:31:24;102335.84;;;30.23;37.91
48848;BME280;36611;51.638;5.784;2023-06-24T05:33:51;102340.31;;;30.24;38.01
48848;BME280;36611;51.638;5.784;2023-06-24T05:36:17;102344.81;;;30.25;37.95
48848;BME280;36611;51.638;5.784;2023-06-24T05:38:44;102339.47;;;30.23;37.97
48848;BME280;36611;51.638;5.784;2023-06-24T05:41:11;102342.03;;;30.25;37.94
48848;BME280;36611;51.638;5.784;2023-06-24T05:43:37;102351.22;;;30.25;37.76
48848;BME280;36611;51.638;5.784;2023-06-24T05:46:07;102348.63;;;30.24;37.99
48848;BME280;36611;51.638;5.784;2023-06-24T05:48:34;102353.13;;;30.25;37.85
48848;BME280;36611;51.638;5.784;2023-06-24T05:51:00;102352.28;;;30.24;38.04
48848;BME280;36611;51.638;5.784;2023-06-24T05:53:27;102349.28;;;30.26;38.13
48848;BME280;36611;51.638;5.784;2023-06-24T05:55:54;102348.44;;;30.25;37.88
48848;BME280;36611;51.638;5.784;2023-06-24T05:58:20;102345.88;;;30.24;38.05
48848;BME280;36611;51.638;5.784;2023-06-24T06:00:47;102348.44;;;30.25;37.84
48848;BME280;36611;51.638;5.784;2023-06-24T06:03:14;102352.06;;;30.26;37.66
48848;BME280;36611;51.638;5.784;2023-06-24T06:05:40;102347.38;;;30.26;37.92
48848;BME280;36611;51.638;5.784;2023-06-24T06:08:07;102350.16;;;30.26;37.95
48848;BME280;36611;51.638;5.784;2023-06-24T06:10:34;102350.16;;;30.26;37.76
48848;BME280;36611;51.638;5.784;2023-06-24T06:13:00;102359.31;;;30.27;38.07
48848;BME280;36611;51.638;5.784;2023-06-24T06:15:27;102362.09;;;30.27;38.05
48848;BME280;36611;51.638;5.784;2023-06-24T06:17:53;102353.78;;;30.27;37.84
48848;BME280;36611;51.638;5.784;2023-06-24T06:20:20;102351.00;;;30.27;38.11
48848;BME280;36611;51.638;5.784;2023-06-24T06:22:46;102355.50;;;30.28;37.95
48848;BME280;36611;51.638;5.784;2023-06-24T06:25:13;102358.25;;;30.28;37.81
48848;BME280;36611;51.638;5.784;2023-06-24T06:27:39;102360.19;;;30.27;38.00
48848;BME280;36611;51.638;5.784;2023-06-24T06:30:07;102361.88;;;30.28;37.78
48848;BME280;36611;51.638;5.784;2023-06-24T06:32:33;102366.56;;;30.28;38.07
48848;BME280;36611;51.638;5.784;2023-06-24T06:35:00;102364.66;;;30.28;37.60
48848;BME280;36611;51.638;5.784;2023-06-24T06:37:26;102358.25;;;30.28;38.00
48848;BME280;36611;51.638;5.784;2023-06-24T06:39:53;102362.75;;;30.29;37.94
48848;BME280;36611;51.638;5.784;2023-06-24T06:42:20;102366.56;;;30.28;37.78
48848;BME280;36611;51.638;5.784;2023-06-24T06:44:46;102374.69;;;30.29;38.03
48848;BME280;36611;51.638;5.784;2023-06-24T06:47:13;102366.38;;;30.29;37.66
48848;BME280;36611;51.638;5.784;2023-06-24T06:49:39;102375.53;;;30.30;37.88
48848;BME280;36611;51.638;5.784;2023-06-24T06:52:06;102366.38;;;30.29;37.95
48848;BME280;36611;51.638;5.784;2023-06-24T06:54:33;102373.63;;;30.30;37.92
48848;BME280;36611;51.638;5.784;2023-06-24T06:57:03;102377.25;;;30.31;38.06
48848;BME280;36611;51.638;5.784;2023-06-24T06:59:31;102381.09;;;30.30;38.12
48848;BME280;36611;51.638;5.784;2023-06-24T07:01:58;102381.94;;;30.30;37.83
48848;BME280;36611;51.638;5.784;2023-06-24T07:04:24;102379.16;;;30.30;37.68
48848;BME280;36611;51.638;5.784;2023-06-24T07:06:51;102381.09;;;30.30;37.75
48848;BME280;36611;51.638;5.784;2023-06-24T07:09:18;102383.66;;;30.31;37.94
48848;BME280;36611;51.638;5.784;2023-06-24T07:11:44;102385.56;;;30.31;37.98
48848;BME280;36611;51.638;5.784;2023-06-24T07:14:11;102393.03;;;30.30;38.15
48848;BME280;36611;51.638;5.784;2023-06-24T07:16:38;102395.81;;;30.30;38.11
48848;BME280;36611;51.638;5.784;2023-06-24T07:19:04;102398.56;;;30.30;38.06
48848;BME280;36611;51.638;5.784;2023-06-24T07:21:31;102390.25;;;30.30;37.89
48848;BME280;36611;51.638;5.784;2023-06-24T07:23:57;102391.97;;;30.31;38.11
48848;BME280;36611;51.638;5.784;2023-06-24T07:26:24;102391.13;;;30.31;38.05
48848;BME280;36611;51.638;5.784;2023-06-24T07:28:51;102391.97;;;30.31;38.21
48848;BME280;36611;51.638;5.784;2023-06-24T07:31:35;102389.19;;;30.31;37.86
48848;BME280;36611;51.638;5.784;2023-06-24T07:34:02;102402.19;;;30.31;37.79
48848;BME280;36611;51.638;5.784;2023-06-24T07:36:28;102391.13;;;30.31;38.08
48848;BME280;36611;51.638;5.784;2023-06-24T07:38:55;102403.06;;;30.31;37.97
48848;BME280;36611;51.638;5.784;2023-06-24T07:41:22;102401.16;;;30.32;37.81
48848;BME280;36611;51.638;5.784;2023-06-24T07:43:49;102392.81;;;30.32;37.82
48848;BME280;36611;51.638;5.784;2023-06-24T07:46:17;102405.81;;;30.31;37.40
48848;BME280;36611;51.638;5.784;2023-06-24T07:48:44;102392.81;;;30.32;37.60
48848;BME280;36611;51.638;5.784;2023-06-24T07:51:10;102395.59;;;30.32;37.55
48848;BME280;36611;51.638;5.784;2023-06-24T07:53:37;102405.81;;;30.31;37.72
48848;BME280;36611;51.638;5.784;2023-06-24T07:56:03;102409.47;;;30.32;37.51
48848;BME280;36611;51.638;5.784;2023-06-24T07:58:30;102403.06;;;30.31;37.51
48848;BME280;36611;51.638;5.784;2023-06-24T08:00:57;102396.66;;;30.31;37.40
48848;BME280;36611;51.638;5.784;2023-06-24T08:03:23;102400.50;;;30.30;37.31
48848;BME280;36611;51.638;5.784;2023-06-24T08:05:50;102393.88;;;30.31;37.43
48848;BME280;36611;51.638;5.784;2023-06-24T08:08:16;102402.19;;;30.31;37.27
48848;BME280;36611;51.638;5.784;2023-06-24T08:10:46;102400.28;;;30.31;37.01
48848;BME280;36611;51.638;5.784;2023-06-24T08:13:13;102404.97;;;30.31;37.04
48848;BME280;36611;51.638;5.784;2023-06-24T08:15:39;102391.13;;;30.31;37.23
48848;BME280;36611;51.638;5.784;2023-06-24T08:18:08;102389.19;;;30.31;37.13
48848;BME280;36611;51.638;5.784;2023-06-24T08:20:34;102388.34;;;30.31;37.23
48848;BME280;36611;51.638;5.784;2023-06-24T08:23:01;102391.97;;;30.31;37.00
48848;BME280;36611;51.638;5.784;2023-06-24T08:25:28;102382.81;;;30.31;36.86
48848;BME280;36611;51.638;5.784;2023-06-24T08:27:54;102382.81;;;30.31;37.08
48848;BME280;36611;51.638;5.784;2023-06-24T08:30:21;102383.66;;;30.31;36.92
48848;BME280;36611;51.638;5.784;2023-06-24T08:32:47;102380.88;;;30.31;36.74
48848;BME280;36611;51.638;5.784;2023-06-24T08:35:14;102381.94;;;30.30;36.92
48848;BME280;36611;51.638;5.784;2023-06-24T08:37:41;102384.72;;;30.30;36.58
48848;BME280;36611;51.638;5.784;2023-06-24T08:40:08;102380.03;;;30.31;36.61
48848;BME280;36611;51.638;5.784;2023-06-24T08:42:35;102380.88;;;30.31;36.53
48848;BME280;36611;51.638;5.784;2023-06-24T08:45:02;102379.16;;;30.30;36.56
48848;BME280;36611;51.638;5.784;2023-06-24T08:47:30;102381.75;;;30.32;36.45
48848;BME280;36611;51.638;5.784;2023-06-24T08:50:16;102376.19;;;30.32;36.57
48848;BME280;36611;51.638;5.784;2023-06-24T08:52:45;102370.00;;;30.30;36.28
48848;BME280;36611;51.638;5.784;2023-06-24T08:55:17;102370.00;;;30.30;36.22
48848;BME280;36611;51.638;5.784;2023-06-24T08:57:43;102373.63;;;30.30;36.36
48848;BME280;36611;51.638;5.784;2023-06-24T09:00:10;102373.63;;;30.30;36.24
48848;BME280;36611;51.638;5.784;2023-06-24T09:02:38;102372.78;;;30.30;36.13
48848;BME280;36611;51.638;5.784;2023-06-24T09:05:06;102361.69;;;30.30;35.85
48848;BME280;36611;51.638;5.784;2023-06-24T09:07:32;102373.63;;;30.30;35.96
48848;BME280;36611;51.638;5.784;2023-06-24T09:10:00;102362.53;;;30.30;35.89
48848;BME280;36611;51.638;5.784;2023-06-24T09:12:34;102368.09;;;30.30;35.96
48848;BME280;36611;51.638;5.784;2023-06-24T09:15:02;102361.69;;;30.30;35.99
48848;BME280;36611;51.638;5.784;2023-06-24T09:17:29;102369.16;;;30.29;36.14
48848;BME280;36611;51.638;5.784;2023-06-24T09:20:07;102363.41;;;30.31;35.77
48848;BME280;36611;51.638;5.784;2023-06-24T09:22:33;102367.22;;;30.30;35.35
48848;BME280;36611;51.638;5.784;2023-06-24T09:25:01;102353.38;;;30.30;35.29
48848;BME280;36611;51.638;5.784;2023-06-24T09:27:31;102352.31;;;30.31;35.60
48848;BME280;36611;51.638;5.784;2023-06-24T09:29:58;102351.44;;;30.30;35.45
48848;BME280;36611;51.638;5.784;2023-06-24T09:32:31;102346.78;;;30.31;35.24
48848;BME280;36611;51.638;5.784;2023-06-24T09:34:58;102342.28;;;30.30;35.23
48848;BME280;36611;51.638;5.784;2023-06-24T09:37:29;102344.19;;;30.29;35.18
48848;BME280;36611;51.638;5.784;2023-06-24T09:39:57;102340.38;;;30.30;35.24
48848;BME280;36611;51.638;5.784;2023-06-24T09:42:24;102333.97;;;30.30;35.27
48848;BME280;36611;51.638;5.784;2023-06-24T09:44:54;102335.69;;;30.31;35.38
48848;BME280;36611;51.638;5.784;2023-06-24T09:47:22;102336.53;;;30.31;35.24
48848;BME280;36611;51.638;5.784;2023-06-24T09:49:54;102341.22;;;30.31;35.07
48848;BME280;36611;51.638;5.784;2023-06-24T09:52:22;102335.69;;;30.31;35.11
48848;BME280;36611;51.638;5.784;2023-06-24T09:54:51;102334.63;;;30.32;35.22
48848;BME280;36611;51.638;5.784;2023-06-24T09:57:26;102335.47;;;30.32;35.00
48848;BME280;36611;51.638;5.784;2023-06-24T09:59:55;102337.59;;;30.30;34.95
48848;BME280;36611;51.638;5.784;2023-06-24T10:02:22;102337.38;;;30.32;35.11
48848;BME280;36611;51.638;5.784;2023-06-24T10:04:51;102345.72;;;30.32;34.65
48848;BME280;36611;51.638;5.784;2023-06-24T10:07:19;102337.38;;;30.32;34.70
48848;BME280;36611;51.638;5.784;2023-06-24T10:09:45;102333.75;;;30.31;35.00
48848;BME280;36611;51.638;5.784;2023-06-24T10:12:12;102329.06;;;30.32;34.81
48848;BME280;36611;51.638;5.784;2023-06-24T10:14:39;102334.63;;;30.32;34.86
48848;BME280;36611;51.638;5.784;2023-06-24T10:17:06;102331.00;;;30.31;34.66
48848;BME280;36611;51.638;5.784;2023-06-24T10:19:40;102328.88;;;30.33;34.67
48848;BME280;36611;51.638;5.784;2023-06-24T10:22:11;102328.22;;;30.31;34.65
48848;BME280;36611;51.638;5.784;2023-06-24T10:24:39;102338.25;;;30.32;34.64
48848;BME280;36611;51.638;5.784;2023-06-24T10:29:39;102321.63;;;30.32;34.44
48848;BME280;36611;51.638;5.784;2023-06-24T10:32:08;102316.28;;;30.31;34.27
48848;BME280;36611;51.638;5.784;2023-06-24T10:34:43;102310.53;;;30.32;34.60
48848;BME280;36611;51.638;5.784;2023-06-24T10:37:11;102316.28;;;30.31;34.20
48848;BME280;36611;51.638;5.784;2023-06-24T10:39:54;102326.31;;;30.32;34.19
48848;BME280;36611;51.638;5.784;2023-06-24T10:42:29;102317.13;;;30.31;34.09
48848;BME280;36611;51.638;5.784;2023-06-24T10:45:00;102324.59;;;30.31;34.32
48848;BME280;36611;51.638;5.784;2023-06-24T10:47:29;102310.72;;;30.31;33.91
48848;BME280;36611;51.638;5.784;2023-06-24T10:49:56;102311.59;;;30.31;33.92
48848;BME280;36611;51.638;5.784;2023-06-24T10:52:23;102313.50;;;30.31;33.74
48848;BME280;36611;51.638;5.784;2023-06-24T10:54:51;102311.59;;;30.31;33.75
48848;BME280;36611;51.638;5.784;2023-06-24T10:57:26;102307.75;;;30.32;33.69
48848;BME280;36611;51.638;5.784;2023-06-24T10:59:54;102308.81;;;30.31;33.83
48848;BME280;36611;51.638;5.784;2023-06-24T11:02:22;102303.28;;;30.31;33.70
48848;BME280;36611;51.638;5.784;2023-06-24T11:04:51;102304.13;;;30.32;33.66
48848;BME280;36611;51.638;5.784;2023-06-24T11:07:23;102302.41;;;30.31;33.54
48848;BME280;36611;51.638;5.784;2023-06-24T11:09:55;102293.91;;;30.32;33.38
48848;BME280;36611;51.638;5.784;2023-06-24T11:12:26;102297.72;;;30.31;33.65
48848;BME280;36611;51.638;5.784;2023-06-24T11:15:01;102284.72;;;30.32;33.63
48848;BME280;36611;51.638;5.784;2023-06-24T11:17:28;102284.94;;;30.30;33.63
48848;BME280;36611;51.638;5.784;2023-06-24T11:19:55;102282.81;;;30.32;33.66
48848;BME280;36611;51.638;5.784;2023-06-24T11:22:24;102280.25;;;30.31;33.60
48848;BME280;36611;51.638;5.784;2023-06-24T11:24:51;102279.19;;;30.32;33.63
48848;BME280;36611;51.638;5.784;2023-06-24T11:27:28;102281.75;;;30.33;33.49
48848;BME280;36611;51.638;5.784;2023-06-24T11:29:57;102280.03;;;30.32;33.25
48848;BME280;36611;51.638;5.784;2023-06-24T11:32:35;102274.50;;;30.32;33.42
48848;BME280;36611;51.638;5.784;2023-06-24T11:35:06;102270.88;;;30.32;33.41
48848;BME280;36611;51.638;5.784;2023-06-24T11:37:33;102268.94;;;30.32;33.43
48848;BME280;36611;51.638;5.784;2023-06-24T11:40:04;102270.66;;;30.33;33.27
48848;BME280;36611;51.638;5.784;2023-06-24T11:42:35;102265.31;;;30.32;33.41
48848;BME280;36611;51.638;5.784;2023-06-24T11:45:06;102265.13;;;30.33;33.41
48848;BME280;36611;51.638;5.784;2023-06-24T11:47:37;102264.06;;;30.34;33.46
48848;BME280;36611;51.638;5.784;2023-06-24T11:50:05;102256.81;;;30.33;33.38
48848;BME280;36611;51.638;5.784;2023-06-24T11:52:33;102265.13;;;30.33;33.58
48848;BME280;36611;51.638;5.784;2023-06-24T11:55:04;102259.78;;;30.32;33.61
48848;BME280;36611;51.638;5.784;2023-06-24T12:00:15;102260.63;;;30.32;33.54
48848;BME280;36611;51.638;5.784;2023-06-24T12:02:41;102257.88;;;30.32;33.44
48848;BME280;36611;51.638;5.784;2023-06-24T12:05:08;102255.09;;;30.32;33.42
48848;BME280;36611;51.638;5.784;2023-06-24T12:07:35;102251.25;;;30.33;33.40
48848;BME280;36611;51.638;5.784;2023-06-24T12:10:02;102249.34;;;30.34;33.35
48848;BME280;36611;51.638;5.784;2023-06-24T12:12:28;102241.03;;;30.34;33.27
48848;BME280;36611;51.638;5.784;2023-06-24T12:14:55;102250.19;;;30.34;33.56
48848;BME280;36611;51.638;5.784;2023-06-24T12:17:22;102237.41;;;30.33;33.12
48848;BME280;36611;51.638;5.784;2023-06-24T12:19:48;102239.13;;;30.34;33.62
48848;BME280;36611;51.638;5.784;2023-06-24T12:22:15;102239.13;;;30.34;33.31
48848;BME280;36611;51.638;5.784;2023-06-24T12:24:42;102241.88;;;30.34;33.35
48848;BME280;36611;51.638;5.784;2023-06-24T12:27:08;102231.66;;;30.35;33.31
48848;BME280;36611;51.638;5.784;2023-06-24T12:29:35;102231.66;;;30.35;33.68
48848;BME280;36611;51.638;5.784;2023-06-24T12:32:02;102226.09;;;30.35;33.35
48848;BME280;36611;51.638;5.784;2023-06-24T12:34:29;102235.28;;;30.35;33.51
48848;BME280;36611;51.638;5.784;2023-06-24T12:36:55;102226.97;;;30.35;33.51
48848;BME280;36611;51.638;5.784;2023-06-24T12:39:22;102234.22;;;30.36;33.83
48848;BME280;36611;51.638;5.784;2023-06-24T12:41:48;102223.34;;;30.35;33.45
48848;BME280;36611;51.638;5.784;2023-06-24T12:44:15;102213.09;;;30.35;33.40
48848;BME280;36611;51.638;5.784;2023-06-24T12:46:42;102228.69;;;30.36;33.51
48848;BME280;36611;51.638;5.784;2023-06-24T12:49:08;102220.34;;;30.36;33.39
48848;BME280;36611;51.638;5.784;2023-06-24T12:51:35;102220.34;;;30.36;33.54
48848;BME280;36611;51.638;5.784;2023-06-24T12:54:01;102219.28;;;30.38;33.52
48848;BME280;36611;51.638;5.784;2023-06-24T12:56:28;102216.72;;;30.36;33.74
48848;BME280;36611;51.638;5.784;2023-06-24T12:58:55;102217.59;;;30.36;33.54
48848;BME280;36611;51.638;5.784;2023-06-24T13:01:21;102219.28;;;30.38;33.57
48848;BME280;36611;51.638;5.784;2023-06-24T13:03:48;102220.16;;;30.38;33.55
48848;BME280;36611;51.638;5.784;2023-06-24T13:06:14;102210.13;;;30.37;33.80
48848;BME280;36611;51.638;5.784;2023-06-24T13:08:41;102206.28;;;30.38;33.69
48848;BME280;36611;51.638;5.784;2023-06-24T13:11:10;102208.22;;;30.38;33.67